Time;durP1;ratioP1;P1;durP2;ratioP2;P2;SDS_P1;SDS_P2;PMS_P1;PMS_P2;Temp;Humidity;BMP_temperature;BMP_pressure;BME280_temperature;BME280_humidity;BME280_pressure;Samples;Min_cycle;Max_cycle;Signal;HPM_P1;HPM_P2
2023/03/02 00:00:55;;;;;;;119.40;53.60;;;;;;;0.85;71.33;99979.21;108037;1306;22572;-39
2023/03/02 00:03:20;;;;;;;120.20;53.50;;;;;;;0.84;71.45;99982.67;108028;1306;23131;-39
2023/03/02 00:05:46;;;;;;;122.40;55.30;;;;;;;0.83;71.38;99979.91;108019;1306;23291;-40
2023/03/02 00:08:14;;;;;;;122.50;54.40;;;;;;;0.81;71.53;99976.29;108014;1306;22312;-40
2023/03/02 00:10:39;;;;;;;122.20;53.50;;;;;;;0.80;72.01;99975.60;108029;1306;22378;-40
2023/03/02 00:13:04;;;;;;;112.60;52.80;;;;;;;0.79;72.14;99977.34;108031;1282;22970;-40
2023/03/02 00:15:30;;;;;;;114.90;51.30;;;;;;;0.77;72.12;99979.08;108014;1306;22181;-40
2023/03/02 00:17:55;;;;;;;121.10;51.50;;;;;;;0.74;72.16;99975.97;108024;1306;22397;-39
2023/03/02 00:20:20;;;;;;;119.80;52.80;;;;;;;0.70;72.65;99974.10;108003;1306;22839;-40
2023/03/02 00:22:47;;;;;;;114.30;52.00;;;;;;;0.67;72.64;99977.38;108027;1306;22334;-41
2023/03/02 00:25:14;;;;;;;112.80;51.20;;;;;;;0.65;73.09;99973.42;108040;1306;22240;-40
2023/03/02 00:27:39;;;;;;;110.30;51.20;;;;;;;0.62;72.94;99969.98;108033;1306;23179;-40
2023/03/02 00:30:06;;;;;;;112.90;51.80;;;;;;;0.61;73.23;99968.09;108014;1306;22228;-41
2023/03/02 00:32:31;;;;;;;114.50;51.10;;;;;;;0.58;73.34;99964.83;108042;1306;22459;-40
2023/03/02 00:34:57;;;;;;;112.90;50.90;;;;;;;0.57;73.16;99959.14;108018;1306;23150;-40
2023/03/02 00:37:24;;;;;;;117.80;50.50;;;;;;;0.53;73.75;99959.33;108054;1306;22436;-40
2023/03/02 00:39:50;;;;;;;112.70;50.90;;;;;;;0.51;73.89;99963.48;108013;1306;22220;-40
2023/03/02 00:42:16;;;;;;;105.70;51.80;;;;;;;0.51;74.06;99964.85;108018;1306;22226;-40
2023/03/02 00:44:41;;;;;;;105.10;50.80;;;;;;;0.48;74.11;99963.14;108018;1306;22262;-40
2023/03/02 00:47:06;;;;;;;117.50;51.50;;;;;;;0.47;74.03;99962.45;108028;1306;22409;-40
2023/03/02 00:49:32;;;;;;;117.20;52.00;;;;;;;0.47;74.42;99958.84;108018;1306;22274;-41
2023/03/02 00:51:57;;;;;;;116.00;51.20;;;;;;;0.46;74.26;99961.08;108006;1306;23119;-41
2023/03/02 00:54:22;;;;;;;119.00;50.00;;;;;;;0.43;74.38;99956.77;108008;1306;22220;-40
2023/03/02 00:56:47;;;;;;;119.00;53.40;;;;;;;0.43;74.08;99957.11;108014;1306;23263;-41
2023/03/02 00:59:25;;;;;;;115.30;52.50;;;;;;;0.38;74.37;99953.86;108027;1306;22461;-41
2023/03/02 01:01:56;;;;;;;114.60;51.20;;;;;;;0.36;74.73;99948.17;108028;1306;22314;-40
2023/03/02 01:04:35;;;;;;;120.10;52.50;;;;;;;0.36;74.87;99946.45;108043;1306;23015;-41
2023/03/02 01:07:09;;;;;;;114.20;51.80;;;;;;;0.35;75.30;99945.77;108043;1306;22210;-40
2023/03/02 01:09:35;;;;;;;111.80;51.20;;;;;;;0.33;75.28;99942.14;108039;1306;22223;-41
2023/03/02 01:12:01;;;;;;;108.50;52.80;;;;;;;0.31;75.13;99941.29;108026;1306;22382;-40
2023/03/02 01:14:26;;;;;;;110.10;53.30;;;;;;;0.28;75.10;99939.74;108013;1292;22458;-41
2023/03/02 01:16:52;;;;;;;120.50;53.40;;;;;;;0.24;75.15;99934.92;108009;1306;22657;-41
2023/03/02 01:19:17;;;;;;;111.20;52.50;;;;;;;0.22;74.99;99934.59;108001;1306;22120;-41
2023/03/02 01:21:43;;;;;;;115.60;53.20;;;;;;;0.25;74.92;99931.30;107986;1306;22392;-40
2023/03/02 01:24:09;;;;;;;112.50;52.70;;;;;;;0.25;75.23;99930.95;108029;1306;22460;-41
2023/03/02 01:26:36;;;;;;;117.40;52.00;;;;;;;0.27;75.35;99926.80;108002;1306;22395;-40
2023/03/02 01:29:02;;;;;;;106.00;50.50;;;;;;;0.29;74.99;99928.18;107666;1306;22280;-40
2023/03/02 01:31:28;;;;;;;111.40;50.30;;;;;;;0.28;75.00;99925.09;108033;1306;22294;-40
2023/03/02 01:33:54;;;;;;;105.30;49.40;;;;;;;0.28;75.17;99921.13;108033;1306;22964;-40
2023/03/02 01:36:21;;;;;;;118.60;52.60;;;;;;;0.28;75.19;99913.70;108025;1306;22229;-40
2023/03/02 01:38:46;;;;;;;118.60;52.30;;;;;;;0.30;75.04;99912.66;108019;1306;22234;-40
2023/03/02 01:41:12;;;;;;;116.20;52.10;;;;;;;0.33;74.96;99910.39;108030;1306;23066;-41
2023/03/02 01:43:38;;;;;;;116.10;51.40;;;;;;;0.35;74.72;99909.18;107659;1306;22247;-41
2023/03/02 01:46:13;;;;;;;103.10;48.70;;;;;;;0.35;74.98;99905.23;108015;1306;22210;-40
2023/03/02 01:48:47;;;;;;;99.30;49.50;;;;;;;0.35;74.72;99902.80;108022;1306;22258;-41
2023/03/02 01:51:17;;;;;;;108.30;51.30;;;;;;;0.34;74.76;99897.47;108013;1306;22218;-41
2023/03/02 01:53:45;;;;;;;117.90;51.80;;;;;;;0.32;74.98;99891.96;108019;1306;22613;-41
2023/03/02 01:56:17;;;;;;;112.10;50.80;;;;;;;0.32;75.10;99892.48;108015;1306;22293;-40
2023/03/02 01:58:44;;;;;;;112.20;52.30;;;;;;;0.30;74.88;99887.48;108040;1306;23026;-40
2023/03/02 02:01:14;;;;;;;117.50;51.50;;;;;;;0.30;75.09;99881.45;108021;1306;22214;-40
2023/03/02 02:03:42;;;;;;;117.10;53.00;;;;;;;0.27;75.05;99877.49;108015;1306;22412;-40
2023/03/02 02:06:07;;;;;;;113.70;53.70;;;;;;;0.19;74.96;99876.31;108036;1306;22406;-41
2023/03/02 02:08:32;;;;;;;119.00;53.70;;;;;;;0.19;74.79;99874.95;108020;1306;22396;-40
2023/03/02 02:10:58;;;;;;;123.70;54.30;;;;;;;0.16;75.10;99875.98;108007;1306;22942;-41
2023/03/02 02:13:23;;;;;;;115.50;53.30;;;;;;;0.13;75.43;99875.99;108025;1306;22393;-40
2023/03/02 02:15:51;;;;;;;116.50;53.90;;;;;;;0.14;75.82;99873.58;108029;1306;22236;-40
2023/03/02 02:18:16;;;;;;;116.00;53.50;;;;;;;0.09;75.93;99870.14;108047;1306;22226;-40
2023/03/02 02:20:44;;;;;;;117.10;53.50;;;;;;;0.07;75.99;99866.02;108035;1306;22237;-41
2023/03/02 02:23:32;;;;;;;110.50;52.30;;;;;;;0.06;75.80;99864.46;108038;1306;22430;-40
2023/03/02 02:26:17;;;;;;;110.00;52.10;;;;;;;0.02;75.98;99860.52;108012;1306;23001;-41
2023/03/02 02:28:59;;;;;;;114.70;52.30;;;;;;;0.01;76.32;99861.38;108023;1306;22315;-40
2023/03/02 02:31:47;;;;;;;112.60;50.30;;;;;;;-0.01;76.51;99861.73;108027;1306;22202;-40
2023/03/02 02:34:21;;;;;;;111.10;51.60;;;;;;;-0.04;76.42;99858.64;108026;1306;22235;-41
2023/03/02 02:36:48;;;;;;;112.00;52.20;;;;;;;-0.08;76.62;99852.61;108023;1306;22313;-41
2023/03/02 02:39:20;;;;;;;108.90;52.60;;;;;;;-0.07;76.70;99852.79;108021;1306;22382;-41
2023/03/02 02:43:41;;;;;;;109.80;51.50;;;;;;;-0.09;76.93;99853.65;106709;1305;545101;-39
2023/03/02 02:46:10;;;;;;;108.10;51.90;;;;;;;-0.11;76.89;99852.63;107111;1315;22440;-38
2023/03/02 02:48:35;;;;;;;106.00;51.70;;;;;;;-0.14;77.02;99845.05;107114;1315;23028;-39
2023/03/02 02:51:01;;;;;;;120.40;53.60;;;;;;;-0.15;77.06;99842.12;107114;1315;22307;-39
2023/03/02 02:53:57;;;;;;;117.00;52.60;;;;;;;-0.17;77.54;99843.67;107130;1315;23383;-39
2023/03/02 02:56:25;;;;;;;113.80;52.20;;;;;;;-0.22;77.59;99845.06;107051;1313;153639;-39
2023/03/02 02:58:52;;;;;;;110.00;53.20;;;;;;;-0.23;77.39;99846.63;107186;1313;22490;-39
2023/03/02 03:01:24;;;;;;;124.50;58.90;;;;;;;-0.24;77.77;99846.79;107352;1312;22245;-40
2023/03/02 03:03:53;;;;;;;121.90;55.20;;;;;;;-0.21;77.40;99850.23;107424;1311;22298;-39
2023/03/02 03:06:24;;;;;;;113.50;53.20;;;;;;;-0.20;77.16;99850.39;107061;1311;22578;-38
2023/03/02 03:08:54;;;;;;;110.30;51.40;;;;;;;-0.17;77.01;99849.53;107181;1311;22266;-41
2023/03/02 03:11:23;;;;;;;112.80;49.30;;;;;;;-0.19;77.24;99846.95;107434;1311;23115;-39
2023/03/02 03:14:00;;;;;;;122.30;53.00;;;;;;;-0.21;77.17;99847.30;107429;1303;22441;-40
2023/03/02 03:16:28;;;;;;;112.40;51.90;;;;;;;-0.28;77.09;99843.36;107566;1310;22435;-39
2023/03/02 03:18:55;;;;;;;113.00;52.10;;;;;;;-0.26;77.07;99844.38;107550;1310;22968;-45
2023/03/02 03:21:20;;;;;;;121.30;52.00;;;;;;;-0.22;77.22;99845.75;107566;1291;22272;-39
2023/03/02 03:23:45;;;;;;;113.20;53.50;;;;;;;-0.21;76.97;99839.89;107573;1310;23178;-39
2023/03/02 03:26:11;;;;;;;118.00;54.10;;;;;;;-0.19;76.97;99840.58;107557;1310;22755;-39
2023/03/02 03:28:36;;;;;;;114.70;50.20;;;;;;;-0.21;77.05;99834.73;107559;1310;22288;-40
2023/03/02 03:31:01;;;;;;;116.00;52.70;;;;;;;-0.23;76.89;99837.48;107537;1310;23189;-39
2023/03/02 03:33:27;;;;;;;111.80;51.20;;;;;;;-0.24;76.75;99835.26;107540;1303;22233;-39
2023/03/02 03:35:52;;;;;;;130.10;53.20;;;;;;;-0.23;76.93;99834.39;107539;1310;22261;-39
2023/03/02 03:38:18;;;;;;;119.20;52.60;;;;;;;-0.29;76.91;99838.89;107551;1310;22287;-40
2023/03/02 03:40:43;;;;;;;140.40;56.80;;;;;;;-0.27;76.86;99837.16;107623;1310;22330;-40
2023/03/02 03:43:09;;;;;;;121.70;55.90;;;;;;;-0.25;76.74;99841.98;107613;1310;22882;-39
2023/03/02 03:45:34;;;;;;;119.90;53.70;;;;;;;-0.22;76.47;99838.52;107589;1310;22345;-39
2023/03/02 03:48:00;;;;;;;124.70;54.70;;;;;;;-0.23;76.69;99835.25;107625;1310;22900;-39
2023/03/02 03:50:26;;;;;;;119.40;52.70;;;;;;;-0.24;76.73;99840.59;107593;1310;22240;-39
2023/03/02 03:52:51;;;;;;;120.10;53.20;;;;;;;-0.27;77.02;99839.05;107439;1310;22704;-40
2023/03/02 03:55:16;;;;;;;136.60;61.80;;;;;;;-0.33;77.24;99841.81;106449;1310;22608;-37
2023/03/02 03:57:42;;;;;;;142.20;61.50;;;;;;;-0.30;76.50;99842.50;106447;1310;25289;-40
2023/03/02 04:00:13;;;;;;;132.90;60.10;;;;;;;-0.34;76.53;99841.83;106925;1310;22235;-40
2023/03/02 04:02:39;;;;;;;134.40;58.60;;;;;;;-0.41;77.28;99840.80;107575;1310;22271;-40
2023/03/02 04:05:06;;;;;;;133.20;62.00;;;;;;;-0.46;77.53;99836.86;107585;1310;22244;-41
2023/03/02 04:07:33;;;;;;;142.80;61.00;;;;;;;-0.50;77.77;99838.59;107564;1310;22421;-41
2023/03/02 04:10:03;;;;;;;147.10;64.50;;;;;;;-0.53;77.70;99842.72;107548;1310;22234;-41
2023/03/02 04:12:29;;;;;;;138.40;66.60;;;;;;;-0.56;77.71;99839.11;107573;1310;22394;-41
2023/03/02 04:14:54;;;;;;;147.50;65.90;;;;;;;-0.58;77.91;99840.31;107585;1310;22958;-40
2023/03/02 04:17:20;;;;;;;138.40;63.50;;;;;;;-0.58;78.19;99837.39;107591;1310;23164;-41
2023/03/02 04:19:45;;;;;;;134.00;62.40;;;;;;;-0.59;78.29;99832.04;107566;1310;22229;-40
2023/03/02 04:22:10;;;;;;;161.90;67.50;;;;;;;-0.63;78.45;99828.44;107568;1310;22575;-41
2023/03/02 04:24:36;;;;;;;165.40;74.10;;;;;;;-0.68;78.24;99823.97;107567;1309;22227;-40
2023/03/02 04:27:02;;;;;;;173.80;77.20;;;;;;;-0.70;78.17;99821.73;107580;1286;22435;-40
2023/03/02 04:29:27;;;;;;;181.40;79.50;;;;;;;-0.67;78.15;99826.54;107591;1310;22283;-40
2023/03/02 04:31:53;;;;;;;168.70;77.60;;;;;;;-0.68;78.32;99829.48;107588;1310;22311;-41
2023/03/02 04:34:18;;;;;;;185.90;78.50;;;;;;;-0.68;78.46;99829.98;107566;1310;22310;-40
2023/03/02 04:36:44;;;;;;;175.90;79.50;;;;;;;-0.67;78.62;99829.13;107565;1310;23162;-40
2023/03/02 04:39:11;;;;;;;185.20;80.10;;;;;;;-0.67;79.01;99828.61;107576;1310;22248;-41
2023/03/02 04:41:37;;;;;;;180.70;79.90;;;;;;;-0.72;79.02;99828.79;107553;1310;22967;-40
2023/03/02 04:44:03;;;;;;;191.00;83.60;;;;;;;-0.76;79.27;99828.28;107583;1310;22434;-41
2023/03/02 04:46:28;;;;;;;185.70;83.00;;;;;;;-0.78;79.31;99835.69;107588;1310;22920;-40
2023/03/02 04:48:54;;;;;;;181.10;83.60;;;;;;;-0.76;79.77;99834.30;107566;1310;22250;-40
2023/03/02 04:51:24;;;;;;;182.50;82.10;;;;;;;-0.73;79.89;99833.09;107407;1310;22583;-42
2023/03/02 04:53:54;;;;;;;181.80;82.80;;;;;;;-0.72;79.52;99830.86;107587;1310;23343;-40
2023/03/02 04:56:20;;;;;;;174.60;79.70;;;;;;;-0.70;79.51;99829.98;107582;1310;22426;-41
2023/03/02 04:58:47;;;;;;;182.10;80.70;;;;;;;-0.69;79.34;99831.71;107591;1310;22397;-41
2023/03/02 05:01:14;;;;;;;179.50;78.00;;;;;;;-0.68;79.46;99835.50;107377;1310;22314;-42
2023/03/02 05:03:39;;;;;;;169.50;75.80;;;;;;;-0.64;79.28;99832.58;107594;1310;22824;-41
2023/03/02 05:06:06;;;;;;;173.10;80.00;;;;;;;-0.62;79.12;99833.42;107419;1310;22331;-39
2023/03/02 05:08:31;;;;;;;175.10;75.50;;;;;;;-0.63;78.97;99835.66;107575;1310;23000;-39
2023/03/02 05:10:57;;;;;;;174.40;76.20;;;;;;;-0.64;79.17;99835.67;107585;1310;22403;-39
2023/03/02 05:13:24;;;;;;;162.50;74.30;;;;;;;-0.63;79.12;99835.84;107601;1310;22233;-40
2023/03/02 05:15:50;;;;;;;170.10;74.90;;;;;;;-0.61;78.94;99839.80;107564;1310;23713;-40
2023/03/02 05:18:16;;;;;;;166.10;74.90;;;;;;;-0.55;78.86;99840.65;107584;1310;22237;-41
2023/03/02 05:20:42;;;;;;;167.80;76.50;;;;;;;-0.51;78.54;99846.84;107578;1310;23331;-41
2023/03/02 05:23:09;;;;;;;182.00;74.60;;;;;;;-0.51;78.30;99850.81;107573;1310;22193;-41
2023/03/02 05:25:37;;;;;;;173.70;79.90;;;;;;;-0.52;78.80;99850.65;107638;1309;22466;-41
2023/03/02 05:28:03;;;;;;;168.90;78.10;;;;;;;-0.52;78.78;99853.05;107660;1309;22277;-41
2023/03/02 05:30:29;;;;;;;180.70;77.60;;;;;;;-0.51;78.75;99857.70;107678;1309;22753;-41
2023/03/02 05:32:55;;;;;;;156.60;68.10;;;;;;;-0.51;78.65;99862.52;107650;1309;22483;-41
2023/03/02 05:35:22;;;;;;;183.60;82.80;;;;;;;-0.47;78.60;99863.91;107444;1309;22232;-39
2023/03/02 05:37:48;;;;;;;190.10;85.40;;;;;;;-0.47;78.81;99864.93;107668;1309;22669;-40
2023/03/02 05:40:16;;;;;;;179.10;79.90;;;;;;;-0.44;78.89;99862.52;107646;1309;22375;-40
2023/03/02 05:42:42;;;;;;;169.80;76.10;;;;;;;-0.41;78.74;99861.64;107663;1309;22232;-40
2023/03/02 05:45:15;;;;;;;160.30;72.00;;;;;;;-0.38;78.79;99859.40;107683;1309;22425;-40
2023/03/02 05:47:41;;;;;;;160.00;72.60;;;;;;;-0.34;78.51;99862.50;107647;1309;22188;-40
2023/03/02 05:50:07;;;;;;;155.70;72.00;;;;;;;-0.34;78.70;99864.39;107670;1309;22219;-40
2023/03/02 05:52:32;;;;;;;153.80;67.50;;;;;;;-0.33;79.01;99862.32;107665;1309;22928;-40
2023/03/02 05:54:58;;;;;;;142.50;66.90;;;;;;;-0.34;79.08;99861.81;107647;1309;23050;-40
2023/03/02 05:57:24;;;;;;;164.00;72.10;;;;;;;-0.32;79.07;99861.46;107661;1309;22267;-40
2023/03/02 05:59:49;;;;;;;144.00;66.00;;;;;;;-0.29;79.37;99862.48;107672;1309;22241;-40
2023/03/02 06:02:15;;;;;;;154.90;71.10;;;;;;;-0.26;79.43;99866.44;107656;1309;22206;-40
2023/03/02 06:04:41;;;;;;;153.40;71.10;;;;;;;-0.19;79.48;99869.53;107674;1309;22914;-41
2023/03/02 06:07:09;;;;;;;141.50;64.60;;;;;;;-0.16;79.52;99871.77;107754;1308;22114;-40
2023/03/02 06:09:34;;;;;;;;;;;;;;;-0.14;79.20;99876.41;107778;1308;22449;-40
2023/03/02 06:12:00;;;;;;;122.80;56.80;;;;;;;-0.15;79.25;99875.55;107748;1308;22423;-40
2023/03/02 06:14:25;;;;;;;143.30;63.00;;;;;;;-0.09;79.35;99873.98;107736;1308;22246;-40
2023/03/02 06:16:50;;;;;;;120.20;60.90;;;;;;;-0.01;79.64;99875.69;107737;1308;22371;-40
2023/03/02 06:19:16;;;;;;;129.40;59.80;;;;;;;0.09;79.43;99878.76;107758;1308;22496;-40
2023/03/02 06:21:41;;;;;;;131.80;61.30;;;;;;;0.14;79.01;99876.86;107732;1308;22407;-40
2023/03/02 06:24:07;;;;;;;121.20;58.50;;;;;;;0.11;78.97;99879.79;107759;1308;22218;-40
2023/03/02 06:26:32;;;;;;;117.60;56.10;;;;;;;0.16;79.15;99881.67;107748;1308;23139;-40
2023/03/02 06:28:57;;;;;;;129.00;59.10;;;;;;;0.30;78.98;99884.02;107757;1308;22230;-40
2023/03/02 06:31:22;;;;;;;127.70;55.00;;;;;;;0.42;78.91;99887.95;107756;1308;23298;-40
2023/03/02 06:33:48;;;;;;;109.10;54.30;;;;;;;0.53;78.91;99892.05;107771;1308;22388;-40
2023/03/02 06:36:15;;;;;;;120.30;54.40;;;;;;;0.63;78.89;99893.02;107765;1303;23134;-41
2023/03/02 06:38:41;;;;;;;108.90;52.60;;;;;;;0.76;78.34;99894.16;107764;1308;22232;-40
2023/03/02 06:41:06;;;;;;;111.40;51.90;;;;;;;0.83;77.85;99891.53;107733;1308;22140;-40
2023/03/02 06:43:31;;;;;;;118.30;53.10;;;;;;;0.88;77.61;99894.94;107718;1307;22190;-40
2023/03/02 06:45:59;;;;;;;119.90;52.60;;;;;;;0.89;77.46;99893.91;107762;1308;22549;-40
2023/03/02 06:48:24;;;;;;;;;;;;;;;0.89;77.75;99895.13;107792;1308;22439;-40
2023/03/02 06:50:49;;;;;;;112.20;51.40;;;;;;;0.97;78.26;99892.30;107757;1308;22419;-40
2023/03/02 06:53:17;;;;;;;113.40;52.70;;;;;;;1.10;77.99;99895.33;107744;1308;22442;-39
2023/03/02 06:55:42;;;;;;;116.90;52.80;;;;;;;1.17;77.40;99894.41;107759;1308;22849;-40
2023/03/02 06:58:11;;;;;;;104.40;49.60;;;;;;;1.24;77.42;99897.46;107760;1308;22259;-41
2023/03/02 07:00:38;;;;;;;110.60;50.30;;;;;;;1.35;77.29;99899.10;107761;1308;22415;-41
2023/03/02 07:03:06;;;;;;;101.90;49.40;;;;;;;1.46;77.26;99902.83;107379;1308;22229;-44
2023/03/02 07:05:31;;;;;;;108.40;50.30;;;;;;;1.55;77.03;99895.83;107715;1308;22431;-40
2023/03/02 07:07:58;;;;;;;107.50;50.30;;;;;;;1.58;76.75;99897.71;107763;1308;22366;-41
2023/03/02 07:10:23;;;;;;;111.10;51.50;;;;;;;1.62;76.85;99899.40;107570;1308;22252;-40
2023/03/02 07:12:48;;;;;;;107.30;52.00;;;;;;;1.67;76.78;99898.14;107736;1308;22309;-41
2023/03/02 07:15:15;;;;;;;112.50;52.40;;;;;;;1.70;76.70;99895.02;107773;1308;22245;-40
2023/03/02 07:17:42;;;;;;;109.90;51.10;;;;;;;1.71;76.98;99896.20;107725;1308;22276;-41
2023/03/02 07:20:11;;;;;;;112.50;50.70;;;;;;;1.73;77.08;99899.64;107745;1308;22418;-41
2023/03/02 07:22:37;;;;;;;104.20;51.80;;;;;;;1.76;77.32;99900.48;107780;1308;23127;-41
2023/03/02 07:25:03;;;;;;;104.40;49.80;;;;;;;1.80;77.24;99899.91;107765;1308;22278;-41
2023/03/02 07:27:28;;;;;;;109.40;51.60;;;;;;;1.84;77.21;99899.88;107756;1308;22506;-41
2023/03/02 07:29:53;;;;;;;105.30;51.60;;;;;;;1.89;77.53;99896.55;107734;1308;22656;-41
2023/03/02 07:32:18;;;;;;;121.50;50.70;;;;;;;1.93;77.45;99893.39;107767;1308;22431;-41
2023/03/02 07:34:44;;;;;;;128.80;56.00;;;;;;;1.97;77.96;99891.29;107739;1308;22277;-41
2023/03/02 07:37:09;;;;;;;113.50;53.60;;;;;;;2.02;78.54;99887.08;107753;1308;22254;-41
2023/03/02 07:39:34;;;;;;;137.80;55.50;;;;;;;2.09;78.62;99883.02;107725;1308;22229;-41
2023/03/02 07:42:01;;;;;;;110.80;53.20;;;;;;;2.18;78.65;99885.51;107722;1308;22993;-40
2023/03/02 07:44:27;;;;;;;130.00;56.50;;;;;;;2.25;78.36;99884.22;107755;1308;22431;-41
2023/03/02 07:46:53;;;;;;;118.80;52.70;;;;;;;2.28;78.57;99885.39;107722;1308;22811;-40
2023/03/02 07:49:18;;;;;;;114.10;53.20;;;;;;;2.32;78.40;99882.95;107732;1308;22255;-41
2023/03/02 07:51:45;;;;;;;126.00;56.00;;;;;;;2.42;77.75;99879.34;107742;1308;22397;-41
2023/03/02 07:54:10;;;;;;;116.10;51.90;;;;;;;2.48;77.74;99877.20;107554;1308;22276;-41
2023/03/02 07:56:35;;;;;;;107.30;48.90;;;;;;;2.54;78.21;99879.54;107442;1308;22327;-42
2023/03/02 07:59:01;;;;;;;115.20;54.60;;;;;;;2.61;78.14;99882.38;107724;1308;22993;-40
2023/03/02 08:01:26;;;;;;;132.80;58.30;;;;;;;2.63;77.00;99880.45;107724;1308;22795;-41
2023/03/02 08:03:52;;;;;;;151.70;67.60;;;;;;;2.68;76.26;99880.05;107511;1308;22604;-41
2023/03/02 08:06:18;;;;;;;172.80;74.30;;;;;;;2.67;75.13;99874.02;106602;1308;22641;-37
2023/03/02 08:08:43;;;;;;;161.30;75.20;;;;;;;2.67;75.05;99874.86;107447;1308;22229;-41
